Fulton, Mississippi
Current Conditions -  °F | °C
As of 6:53 AM on Friday 24 Oct 2014 (Local Time) from KTUP Reporting Station
Few Clouds Few Clouds  
Wind Chill: 46°   Ceiling: Unl
Heat Index: 46°   Visibility: 10mi
Dew Point: 44°   Wind: 3mph
Humidity: 93%   Direction: 10°N
Pressure: 30.12"   Gusts: NA
Location:  34.27°N, 88.41°W
Report Text: KTUP 241153Z 01003KT 10SM FEW110 08/07 A3012 RMK AO2 SLP199 T00780067 10117 20078 53003
Loading
Personal Weather Stations






























Interactive Weather Map
Tropical Storm Tracking
New forecast layout! Learn more

10-Day Weather Forecast

Advertisements
Track Severe Weather on mobile